Amy C. Mc Allister — WCZ9520 — position and weather

sailwx.info

Track history (hours):
 
Tides and Currents Weather Stations Pressure Air Temp Water Temp Dewpoint Dewpoint Depression Visibility Wind Speed Wind Dir Waves Ship Positions

Amy C. Mc Allister

Owner: MC ALLISTER TOWING & TRANSPORTATION INC, NEW YORK, NY. More information available from US FCC via Universal Licensing System and Coast Guard Vessel Documentation Center.

Last reported at 2016-May-06 16:30 UTC. Time now 2016-May-06 18:41 UTC.
Position N 40°38' W 074°10'.

; draft 4.9 m.

Type: Towing. MMSI: 366995040.

Date/timePositionNaut miles runAvg speedWind from/ knotsBaromVisibWave heightAir tempDewpointWater temp
2016-May-06 16:30N 40°38' W 074°10'2 2.2
2016-May-06 15:33N 40°39' W 074°07'3 3.1
2016-May-06 14:34N 40°41' W 074°04'3 2.8
2016-May-06 13:34N 40°38' W 074°04'2 1.7
2016-May-06 12:33N 40°39' W 074°06'0 0.0
2016-May-06 11:33N 40°39' W 074°06'0 0.4
2016-May-06 10:33N 40°39' W 074°05'0 0.0
2016-May-06 09:33N 40°39' W 074°05'0 0.0
2016-May-06 08:33N 40°39' W 074°05'5 5.3
2016-May-06 07:33N 40°37' W 074°12'2 0.9
2016-May-06 05:31N 40°39' W 074°10'6 6.6
2016-May-06 04:33N 40°41' W 074°03'1 0.6
2016-May-06 03:33N 40°41' W 074°02'1 1.3
2016-May-06 02:33N 40°40' W 074°01'0 0.0
2016-May-06 01:33N 40°40' W 074°01'2 2.4
2016-May-06 00:34N 40°40' W 074°04'3 3.4
2016-May-05 23:33N 40°39' W 074°09'1 0.9
2016-May-05 22:33N 40°39' W 074°09'3 3.3
2016-May-05 21:34N 40°40' W 074°05'1 0.6
2016-May-05 20:33N 40°40' W 074°04'0 0.0
2016-May-05 19:33N 40°40' W 074°04'4 3.8
2016-May-05 18:33N 40°38' W 074°09'2 0.8
2016-May-05 15:33N 40°38' W 074°12'0 0.4
2016-May-05 14:30N 40°38' W 074°12'1 0.2
2016-May-05 12:21N 40°38' W 074°12'3 0.6
2016-May-05 07:33N 40°39' W 074°08'4 3.5
2016-May-05 06:33N 40°38' W 074°04'2 2.3
2016-May-05 05:33N 40°40' W 074°05'0 0.0
2016-May-05 04:33N 40°40' W 074°05'1 1.1
2016-May-05 03:33N 40°40' W 074°04'1 1.1
2016-May-05 02:33N 40°40' W 074°05'0 0.3
2016-May-05 01:33N 40°40' W 074°05'5 4.6
2016-May-05 00:33N 40°39' W 074°10'1 0.8
2016-May-04 23:32N 40°38' W 074°11'2 1.1
2016-May-04 21:31N 40°39' W 074°09'1 1.0
2016-May-04 20:33N 40°38' W 074°10'2 0.2
2016-May-04 11:33N 40°38' W 074°12'0 0.1
2016-May-04 10:32N 40°38' W 074°12'5 4.7
2016-May-04 09:33N 40°39' W 074°06'3 2.8
2016-May-04 08:33N 40°37' W 074°03'5 4.8
2016-May-04 07:28N 40°38' W 074°10'2 2.5
2016-May-04 06:33N 40°37' W 074°12'1 0.4
2016-May-04 04:16N 40°38' W 074°12'3 3.8
2016-May-04 03:33N 40°39' W 074°08'2 1.7
2016-May-04 02:34N 40°40' W 074°08'2 1.8
2016-May-04 01:33N 40°38' W 074°08'3 2.7
2016-May-04 00:33N 40°40' W 074°05'3 2.9
2016-May-03 23:33N 40°38' W 074°03'4 4.1
2016-May-03 22:33N 40°39' W 074°08'1 1.4
2016-May-03 21:33N 40°40' W 074°09'2 0.4
2016-May-03 16:34N 40°39' W 074°10'1 1.1
2016-May-03 15:33N 40°39' W 074°09'5 4.5
2016-May-03 14:34N 40°38' W 074°03'5 4.3
2016-May-03 13:19N 40°38' W 074°10'0 0.1
2016-May-03 12:31N 40°39' W 074°10'4 4.3
2016-May-03 11:33N 40°40' W 074°05'0 0.0
2016-May-03 10:33N 40°40' W 074°05'0 0.0
2016-May-03 09:33N 40°40' W 074°05'0 0.1
2016-May-03 08:33N 40°40' W 074°05'2 2.3
2016-May-03 07:33N 40°39' W 074°07'2 2.1
2016-May-03 06:33N 40°38' W 074°10'0 0.0
2016-May-03 05:33N 40°38' W 074°10'0 0.0
2016-May-03 04:32N 40°38' W 074°10'2 2.0
2016-May-03 03:33N 40°39' W 074°07'0 0.5
2016-May-03 02:33N 40°39' W 074°07'0 0.3
2016-May-03 01:33N 40°39' W 074°06'2 1.9
2016-May-03 00:33N 40°39' W 074°09'1 1.3
2016-May-02 23:34N 40°40' W 074°08'2 2.1
2016-May-02 22:27N 40°38' W 074°10'3 3.0
2016-May-02 21:33N 40°41' W 074°09'3 2.7
2016-May-02 20:34N 40°38' W 074°09'1 0.6
2016-May-02 19:05N 40°38' W 074°10'0 0.0
2016-May-02 12:23N 40°38' W 074°10'1 1.6
2016-May-02 11:34N 40°40' W 074°09'0 0.5
2016-May-02 10:33N 40°40' W 074°09'3 2.8
2016-May-02 09:34N 40°39' W 074°05'0 0.4
2016-May-02 08:34N 40°39' W 074°05'6 6.2
2016-May-02 07:33N 40°37' W 074°12'1 0.1
2016-May-01 09:20N 40°35' W 074°12'0 0.0
2016-May-01 08:33N 40°35' W 074°12'2 2.0
2016-May-01 07:22N 40°33' W 074°14'1 1.5
2016-May-01 06:33N 40°33' W 074°15'7 3.6
2016-May-01 04:34N 40°39' W 074°10'0 0.0
2016-May-01 02:34N 40°39' W 074°10'0 0.1
2016-May-01 01:30N 40°38' W 074°10'0 0.0
2016-May-01 00:32N 40°38' W 074°10'1 1.4
2016-Apr-30 23:33N 40°40' W 074°09'0 0.0
2016-Apr-30 22:33N 40°40' W 074°09'0 0.0
2016-Apr-30 21:33N 40°40' W 074°09'0 0.0
2016-Apr-30 20:33N 40°40' W 074°09'0 0.1
2016-Apr-30 19:33N 40°40' W 074°09'0 0.0
2016-Apr-30 18:33N 40°40' W 074°09'0 0.0
2016-Apr-30 17:33N 40°40' W 074°09'0 0.0
2016-Apr-30 16:33N 40°40' W 074°09'0 0.0
2016-Apr-30 15:33N 40°40' W 074°09'0 0.0
2016-Apr-30 14:33N 40°40' W 074°09'0 0.3
2016-Apr-30 13:32N 40°39' W 074°09'1 0.8
2016-Apr-30 12:33N 40°40' W 074°09'1 0.5
2016-Apr-30 11:33N 40°41' W 074°08'3 3.3
2016-Apr-30 10:33N 40°40' W 074°04'3 2.9
2016-Apr-30 09:34N 40°37' W 074°04'5 4.9
2016-Apr-30 08:33N 40°38' W 074°10'0 0.0
2016-Apr-30 01:30N 40°38' W 074°10'3 3.3
2016-Apr-30 00:33N 40°41' W 074°08'1 0.6
2016-Apr-29 23:33N 40°42' W 074°08'3 3.2
2016-Apr-29 22:33N 40°39' W 074°08'6 6.4
2016-Apr-29 21:33N 40°41' W 074°00'0 0.0
2016-Apr-29 20:33N 40°41' W 074°00'2 1.8
2016-Apr-29 19:33N 40°43' W 073°58'8 6.2
2016-Apr-29 18:20N 40°48' W 073°51'4 0.2
2016-Apr-28 19:28N 40°47' W 073°56'7 8.1
2016-Apr-28 18:33N 40°41' W 074°01'9 7.5
2016-Apr-28 17:19N 40°36' W 074°12'3 0.8
2016-Apr-28 14:16N 40°39' W 074°11'3 0.7
2016-Apr-28 10:33N 40°41' W 074°09'1 1.3
2016-Apr-28 09:33N 40°40' W 074°09'4 4.4
2016-Apr-28 08:34N 40°38' W 074°03'5 4.8
2016-Apr-28 07:33N 40°39' W 074°10'0 0.0
2016-Apr-28 01:33N 40°39' W 074°10'5 4.6
2016-Apr-28 00:33N 40°39' W 074°04'  
Track history (hours):
 
Tides and Currents Weather Stations Pressure Air Temp Water Temp Dewpoint Dewpoint Depression Visibility Wind Speed Wind Dir Waves Ship Positions

Amy C. Mc Allister

Owner: MC ALLISTER TOWING & TRANSPORTATION INC, NEW YORK, NY. More information available from US FCC via Universal Licensing System and Coast Guard Vessel Documentation Center.

Last reported at 2016-May-06 16:30 UTC. Time now 2016-May-06 18:41 UTC.
Position N 40°38' W 074°10'.

; draft 4.9 m.

Type: Towing. MMSI: 366995040.

Date/timePositionNaut miles runAvg speedWind from/ knotsBaromVisibWave heightAir tempDewpointWater temp
2016-May-06 16:30N 40°38' W 074°10'2 2.2
2016-May-06 15:33N 40°39' W 074°07'3 3.1
2016-May-06 14:34N 40°41' W 074°04'3 2.8
2016-May-06 13:34N 40°38' W 074°04'2 1.7
2016-May-06 12:33N 40°39' W 074°06'0 0.0
2016-May-06 11:33N 40°39' W 074°06'0 0.4
2016-May-06 10:33N 40°39' W 074°05'0 0.0
2016-May-06 09:33N 40°39' W 074°05'0 0.0
2016-May-06 08:33N 40°39' W 074°05'5 5.3
2016-May-06 07:33N 40°37' W 074°12'2 0.9
2016-May-06 05:31N 40°39' W 074°10'6 6.6
2016-May-06 04:33N 40°41' W 074°03'1 0.6
2016-May-06 03:33N 40°41' W 074°02'1 1.3
2016-May-06 02:33N 40°40' W 074°01'0 0.0
2016-May-06 01:33N 40°40' W 074°01'2 2.4
2016-May-06 00:34N 40°40' W 074°04'3 3.4
2016-May-05 23:33N 40°39' W 074°09'1 0.9
2016-May-05 22:33N 40°39' W 074°09'3 3.3
2016-May-05 21:34N 40°40' W 074°05'1 0.6
2016-May-05 20:33N 40°40' W 074°04'0 0.0
2016-May-05 19:33N 40°40' W 074°04'4 3.8
2016-May-05 18:33N 40°38' W 074°09'2 0.8
2016-May-05 15:33N 40°38' W 074°12'0 0.4
2016-May-05 14:30N 40°38' W 074°12'1 0.2
2016-May-05 12:21N 40°38' W 074°12'3 0.6
2016-May-05 07:33N 40°39' W 074°08'4 3.5
2016-May-05 06:33N 40°38' W 074°04'2 2.3
2016-May-05 05:33N 40°40' W 074°05'0 0.0
2016-May-05 04:33N 40°40' W 074°05'1 1.1
2016-May-05 03:33N 40°40' W 074°04'1 1.1
2016-May-05 02:33N 40°40' W 074°05'0 0.3
2016-May-05 01:33N 40°40' W 074°05'5 4.6
2016-May-05 00:33N 40°39' W 074°10'1 0.8
2016-May-04 23:32N 40°38' W 074°11'2 1.1
2016-May-04 21:31N 40°39' W 074°09'1 1.0
2016-May-04 20:33N 40°38' W 074°10'2 0.2
2016-May-04 11:33N 40°38' W 074°12'0 0.1
2016-May-04 10:32N 40°38' W 074°12'5 4.7
2016-May-04 09:33N 40°39' W 074°06'3 2.8
2016-May-04 08:33N 40°37' W 074°03'5 4.8
2016-May-04 07:28N 40°38' W 074°10'2 2.5
2016-May-04 06:33N 40°37' W 074°12'1 0.4
2016-May-04 04:16N 40°38' W 074°12'3 3.8
2016-May-04 03:33N 40°39' W 074°08'2 1.7
2016-May-04 02:34N 40°40' W 074°08'2 1.8
2016-May-04 01:33N 40°38' W 074°08'3 2.7
2016-May-04 00:33N 40°40' W 074°05'3 2.9
2016-May-03 23:33N 40°38' W 074°03'4 4.1
2016-May-03 22:33N 40°39' W 074°08'1 1.4
2016-May-03 21:33N 40°40' W 074°09'2 0.4
2016-May-03 16:34N 40°39' W 074°10'1 1.1
2016-May-03 15:33N 40°39' W 074°09'5 4.5
2016-May-03 14:34N 40°38' W 074°03'5 4.3
2016-May-03 13:19N 40°38' W 074°10'0 0.1
2016-May-03 12:31N 40°39' W 074°10'4 4.3
2016-May-03 11:33N 40°40' W 074°05'0 0.0
2016-May-03 10:33N 40°40' W 074°05'0 0.0
2016-May-03 09:33N 40°40' W 074°05'0 0.1
2016-May-03 08:33N 40°40' W 074°05'2 2.3
2016-May-03 07:33N 40°39' W 074°07'2 2.1
2016-May-03 06:33N 40°38' W 074°10'0 0.0
2016-May-03 05:33N 40°38' W 074°10'0 0.0
2016-May-03 04:32N 40°38' W 074°10'2 2.0
2016-May-03 03:33N 40°39' W 074°07'0 0.5
2016-May-03 02:33N 40°39' W 074°07'0 0.3
2016-May-03 01:33N 40°39' W 074°06'2 1.9
2016-May-03 00:33N 40°39' W 074°09'1 1.3
2016-May-02 23:34N 40°40' W 074°08'2 2.1
2016-May-02 22:27N 40°38' W 074°10'3 3.0
2016-May-02 21:33N 40°41' W 074°09'3 2.7
2016-May-02 20:34N 40°38' W 074°09'1 0.6
2016-May-02 19:05N 40°38' W 074°10'0 0.0
2016-May-02 12:23N 40°38' W 074°10'1 1.6
2016-May-02 11:34N 40°40' W 074°09'0 0.5
2016-May-02 10:33N 40°40' W 074°09'3 2.8
2016-May-02 09:34N 40°39' W 074°05'0 0.4
2016-May-02 08:34N 40°39' W 074°05'6 6.2
2016-May-02 07:33N 40°37' W 074°12'1 0.1
2016-May-01 09:20N 40°35' W 074°12'0 0.0
2016-May-01 08:33N 40°35' W 074°12'2 2.0
2016-May-01 07:22N 40°33' W 074°14'1 1.5
2016-May-01 06:33N 40°33' W 074°15'7 3.6
2016-May-01 04:34N 40°39' W 074°10'0 0.0
2016-May-01 02:34N 40°39' W 074°10'0 0.1
2016-May-01 01:30N 40°38' W 074°10'0 0.0
2016-May-01 00:32N 40°38' W 074°10'1 1.4
2016-Apr-30 23:33N 40°40' W 074°09'0 0.0
2016-Apr-30 22:33N 40°40' W 074°09'0 0.0
2016-Apr-30 21:33N 40°40' W 074°09'0 0.0
2016-Apr-30 20:33N 40°40' W 074°09'0 0.1
2016-Apr-30 19:33N 40°40' W 074°09'0 0.0
2016-Apr-30 18:33N 40°40' W 074°09'0 0.0
2016-Apr-30 17:33N 40°40' W 074°09'0 0.0
2016-Apr-30 16:33N 40°40' W 074°09'0 0.0
2016-Apr-30 15:33N 40°40' W 074°09'0 0.0
2016-Apr-30 14:33N 40°40' W 074°09'0 0.3
2016-Apr-30 13:32N 40°39' W 074°09'1 0.8
2016-Apr-30 12:33N 40°40' W 074°09'1 0.5
2016-Apr-30 11:33N 40°41' W 074°08'3 3.3
2016-Apr-30 10:33N 40°40' W 074°04'3 2.9
2016-Apr-30 09:34N 40°37' W 074°04'5 4.9
2016-Apr-30 08:33N 40°38' W 074°10'0 0.0
2016-Apr-30 01:30N 40°38' W 074°10'3 3.3
2016-Apr-30 00:33N 40°41' W 074°08'1 0.6
2016-Apr-29 23:33N 40°42' W 074°08'3 3.2
2016-Apr-29 22:33N 40°39' W 074°08'6 6.4
2016-Apr-29 21:33N 40°41' W 074°00'0 0.0
2016-Apr-29 20:33N 40°41' W 074°00'2 1.8
2016-Apr-29 19:33N 40°43' W 073°58'8 6.2
2016-Apr-29 18:20N 40°48' W 073°51'4 0.2
2016-Apr-28 19:28N 40°47' W 073°56'7 8.1
2016-Apr-28 18:33N 40°41' W 074°01'9 7.5
2016-Apr-28 17:19N 40°36' W 074°12'3 0.8
2016-Apr-28 14:16N 40°39' W 074°11'3 0.7
2016-Apr-28 10:33N 40°41' W 074°09'1 1.3
2016-Apr-28 09:33N 40°40' W 074°09'4 4.4
2016-Apr-28 08:34N 40°38' W 074°03'5 4.8
2016-Apr-28 07:33N 40°39' W 074°10'0 0.0
2016-Apr-28 01:33N 40°39' W 074°10'5 4.6
2016-Apr-28 00:33N 40°39' W 074°04'  

Dump ship's entire track history